createdAt,value
2019-02-20T00:02:25.602Z,99478.19
2019-02-20T00:07:31.673Z,99479.81
2019-02-20T00:12:37.961Z,99482.75
2019-02-20T00:17:43.558Z,99482.76
2019-02-20T00:22:49.225Z,99484.75
2019-02-20T00:27:54.818Z,99494.86
2019-02-20T00:33:00.959Z,99500.75
2019-02-20T00:38:06.592Z,99501.92
2019-02-20T00:43:12.296Z,99505.55
2019-02-20T00:48:39.990Z,99501.23
2019-02-20T00:53:52.540Z,99497.87
2019-02-20T00:58:58.385Z,99499.25
2019-02-20T01:04:05.313Z,99500.03
2019-02-20T01:09:09.938Z,99501.96
2019-02-20T01:14:15.627Z,99502.56
2019-02-20T01:19:21.276Z,99506.63
2019-02-20T01:24:27.099Z,99512.58
2019-02-20T01:29:33.197Z,99509.33
2019-02-20T01:34:38.844Z,99500.58
2019-02-20T01:39:44.730Z,99508.20
2019-02-20T01:44:50.322Z,99507.45
2019-02-20T01:49:56.229Z,99519.20
2019-02-20T01:55:01.816Z,99514.77
2019-02-20T02:00:08.659Z,99511.14
2019-02-20T02:05:15.705Z,99493.19
2019-02-20T02:10:21.973Z,99489.45
2019-02-20T02:15:27.818Z,99485.45
2019-02-20T02:20:33.543Z,99483.97
2019-02-20T02:25:39.188Z,99480.79
2019-02-20T02:30:45.244Z,99484.16
2019-02-20T02:35:50.873Z,99479.20
2019-02-20T02:40:56.543Z,99479.44
2019-02-20T02:46:02.260Z,99486.72
2019-02-20T02:51:08.005Z,99497.50
2019-02-20T02:56:13.654Z,99502.50
2019-02-20T03:01:19.658Z,99505.44
2019-02-20T03:06:25.392Z,99504.25
2019-02-20T03:11:31.110Z,99521.55
2019-02-20T03:16:36.760Z,99509.88
2019-02-20T03:21:42.663Z,99512.50
2019-02-20T03:26:48.459Z,99515.94
2019-02-20T03:31:54.223Z,99513.18
2019-02-20T03:36:59.835Z,99511.91
2019-02-20T03:42:05.565Z,99515.55
2019-02-20T03:47:11.456Z,99516.50
2019-02-20T03:52:18.124Z,99518.13
2019-02-20T03:57:23.770Z,99517.13
2019-02-20T04:02:29.677Z,99518.31
2019-02-20T04:07:35.517Z,99522.94
2019-02-20T04:12:41.225Z,99525.45
2019-02-20T04:17:46.912Z,99523.51
2019-02-20T04:22:52.717Z,99525.70
2019-02-20T04:27:58.354Z,99524.00
2019-02-20T04:33:04.509Z,99532.41
2019-02-20T04:38:10.462Z,99527.54
2019-02-20T04:43:16.097Z,99528.27
2019-02-20T04:48:21.952Z,99530.15
2019-02-20T04:53:27.616Z,99522.42
2019-02-20T04:58:33.514Z,99522.06
2019-02-20T05:03:39.266Z,99524.18
2019-02-20T05:08:44.991Z,99529.06
2019-02-20T05:13:50.810Z,99534.56
2019-02-20T05:18:56.668Z,99535.19
2019-02-20T05:24:02.346Z,99538.98
2019-02-20T05:29:07.987Z,99541.42
2019-02-20T05:34:13.593Z,99540.87
2019-02-20T05:39:19.586Z,99541.11
2019-02-20T05:44:25.266Z,99536.67
2019-02-20T05:49:30.983Z,99545.93
2019-02-20T05:54:36.701Z,99548.84
2019-02-20T05:59:43.048Z,99551.66
2019-02-20T06:04:49.017Z,99561.41
2019-02-20T06:09:54.671Z,99574.09
2019-02-20T06:15:00.352Z,99582.86
2019-02-20T06:20:06.179Z,99587.08
2019-02-20T06:25:11.910Z,99601.34
2019-02-20T06:30:17.566Z,99608.66
2019-02-20T06:35:23.496Z,99612.20
2019-02-20T06:40:29.232Z,99616.83
2019-02-20T06:45:35.009Z,99609.23
2019-02-20T06:50:40.787Z,99615.70
2019-02-20T06:55:46.495Z,99637.00
2019-02-20T07:00:52.078Z,99628.75
2019-02-20T07:07:19.295Z,99632.46
2019-02-20T07:13:10.199Z,99633.95
2019-02-20T07:19:11.784Z,99639.52
2019-02-20T07:25:13.213Z,99650.20
2019-02-20T07:30:19.016Z,99655.01
2019-02-20T07:35:24.645Z,99650.25
2019-02-20T07:40:30.399Z,99667.82
2019-02-20T07:45:36.067Z,99668.74
2019-02-20T07:50:42.027Z,99676.13
2019-02-20T07:55:47.700Z,99684.02
2019-02-20T08:00:53.538Z,99682.92
2019-02-20T08:05:59.484Z,99699.94
2019-02-20T08:11:05.160Z,99699.70
2019-02-20T08:16:10.821Z,99703.20
2019-02-20T08:21:16.781Z,99709.33
2019-02-20T08:26:22.419Z,99715.59
2019-02-20T08:31:28.057Z,99727.53
2019-02-20T08:36:34.264Z,99727.92
2019-02-20T08:41:39.927Z,99723.27
2019-02-20T08:46:45.977Z,99731.51
2019-02-20T08:51:51.585Z,99733.45
2019-02-20T08:56:57.522Z,99740.46
2019-02-20T09:02:03.397Z,99753.42
2019-02-20T09:07:08.142Z,99750.77
2019-02-20T09:12:14.375Z,99737.11
2019-02-20T09:17:20.054Z,99754.92
2019-02-20T09:22:25.699Z,99751.21
2019-02-20T09:27:31.944Z,99751.31
2019-02-20T09:32:37.627Z,99756.06
2019-02-20T09:37:43.458Z,99752.98
2019-02-20T09:42:49.646Z,99774.05
2019-02-20T09:47:55.303Z,99771.92
2019-02-20T09:53:01.071Z,99769.05
2019-02-20T09:58:07.058Z,99769.91
2019-02-20T10:03:13.440Z,99774.79
2019-02-20T10:08:19.237Z,99772.81
2019-02-20T10:13:24.851Z,99769.53
2019-02-20T10:18:30.616Z,99764.03
2019-02-20T10:23:36.799Z,99752.60
2019-02-20T10:28:43.227Z,99758.38
2019-02-20T10:33:49.249Z,99763.45
2019-02-20T10:38:54.881Z,99753.49
2019-02-20T10:44:00.905Z,99751.17
2019-02-20T10:49:06.967Z,99737.73
2019-02-20T10:54:12.922Z,99746.25
2019-02-20T10:59:18.866Z,99736.97
2019-02-20T11:04:25.086Z,99732.66
2019-02-20T11:09:31.914Z,99737.39
2019-02-20T11:14:38.051Z,99729.30
2019-02-20T11:19:43.688Z,99725.07
2019-02-20T11:24:49.733Z,99729.67
2019-02-20T11:29:56.027Z,99721.94
2019-02-20T11:35:02.211Z,99729.17
2019-02-20T11:40:08.892Z,99739.61
2019-02-20T11:45:15.085Z,99739.31
2019-02-20T11:50:21.223Z,99748.31
2019-02-20T11:55:27.044Z,99740.31
2019-02-20T12:00:32.754Z,99739.12
2019-02-20T12:05:38.695Z,99760.81
2019-02-20T12:10:45.006Z,99756.45
2019-02-20T12:15:50.635Z,99751.89
2019-02-20T12:20:56.914Z,99745.23
2019-02-20T12:26:02.872Z,99746.52
2019-02-20T12:31:08.871Z,99735.70
2019-02-20T12:36:14.597Z,99732.05
2019-02-20T12:41:20.453Z,99737.89
2019-02-20T12:46:26.084Z,99742.71
2019-02-20T12:51:32.065Z,99746.93
2019-02-20T12:56:43.866Z,99749.66
2019-02-20T13:01:45.959Z,99740.13
2019-02-20T13:06:59.223Z,99742.09
2019-02-20T13:11:59.466Z,99750.01
2019-02-20T13:17:06.153Z,99740.22
2019-02-20T13:22:11.777Z,99755.34
2019-02-20T13:27:22.706Z,99759.40
2019-02-20T13:32:25.609Z,99763.45
2019-02-20T13:37:31.302Z,99774.95
2019-02-20T13:42:37.570Z,99783.48
2019-02-20T13:47:43.607Z,99778.55
2019-02-20T13:52:52.387Z,99772.75
2019-02-20T13:57:57.182Z,99783.30
2019-02-20T14:03:03.499Z,99783.35
2019-02-20T14:08:09.229Z,99786.49
2019-02-20T14:13:14.876Z,99790.14
2019-02-20T14:18:20.922Z,99784.50
2019-02-20T14:23:26.692Z,99784.11
2019-02-20T14:28:32.719Z,99791.23
2019-02-20T14:33:38.984Z,99799.36
2019-02-20T14:38:45.270Z,99793.59
2019-02-20T14:43:50.910Z,99802.70
2019-02-20T14:48:56.882Z,99799.06
2019-02-20T14:54:02.910Z,99802.09
2019-02-20T14:59:08.608Z,99802.22
2019-02-20T15:04:14.514Z,99805.55
2019-02-20T15:09:21.427Z,99810.77
2019-02-20T15:14:27.560Z,99818.36
2019-02-20T15:19:33.252Z,99812.55
2019-02-20T15:24:38.877Z,99822.70
2019-02-20T15:29:45.331Z,99816.11
2019-02-20T15:34:51.303Z,99813.09
2019-02-20T15:39:57.305Z,99821.47
2019-02-20T15:45:03.453Z,99820.15
2019-02-20T15:50:10.965Z,99824.14
2019-02-20T15:55:17.037Z,99831.31
2019-02-20T16:00:24.685Z,99829.76
2019-02-20T16:05:31.426Z,99834.06
2019-02-20T16:10:37.246Z,99839.41
2019-02-20T16:15:43.183Z,99856.59
2019-02-20T16:20:49.085Z,99847.60
2019-02-20T16:25:55.150Z,99868.59
2019-02-20T16:31:00.891Z,99869.36
2019-02-20T16:36:06.825Z,99883.84
2019-02-20T16:41:13.101Z,99885.64
2019-02-20T16:46:19.095Z,99896.80
2019-02-20T16:51:24.735Z,99907.20
2019-02-20T16:56:30.840Z,99911.97
2019-02-20T17:01:36.433Z,99927.54
2019-02-20T17:06:42.442Z,99920.02
2019-02-20T17:11:48.847Z,99919.73
2019-02-20T17:16:54.631Z,99928.00
2019-02-20T17:22:00.342Z,99927.93
2019-02-20T17:27:06.418Z,99939.72
2019-02-20T17:32:12.898Z,99946.56
2019-02-20T17:37:18.918Z,99951.33
2019-02-20T17:42:24.837Z,99954.25
2019-02-20T17:47:30.826Z,99956.28
2019-02-20T17:52:36.889Z,99961.93
2019-02-20T17:57:42.964Z,99951.25
2019-02-20T18:02:49.430Z,99960.41
2019-02-20T18:07:55.509Z,99967.04
2019-02-20T18:13:01.645Z,99965.93
2019-02-20T18:18:07.648Z,99975.20
2019-02-20T18:23:13.324Z,99972.01
2019-02-20T18:28:24.376Z,99976.70
2019-02-20T18:33:26.819Z,99981.60
2019-02-20T18:38:32.971Z,99989.50
2019-02-20T18:43:39.146Z,99992.17
2019-02-20T18:48:44.804Z,99999.61
2019-02-20T18:53:50.835Z,100004.24
2019-02-20T18:58:56.518Z,100002.45
2019-02-20T19:04:02.492Z,100013.64
2019-02-20T19:09:25.624Z,100021.36
2019-02-20T19:15:06.528Z,100030.15
2019-02-20T19:21:31.704Z,100026.52
2019-02-20T19:27:43.007Z,100021.77
2019-02-20T19:33:41.097Z,100027.16
2019-02-20T19:39:23.277Z,100034.92
2019-02-20T19:45:18.246Z,100040.45
2019-02-20T19:51:02.526Z,100040.45
2019-02-20T19:56:48.318Z,100047.80
2019-02-20T20:03:21.769Z,100056.05
2019-02-20T20:09:02.560Z,100062.34
2019-02-20T20:14:45.334Z,100070.66
2019-02-20T20:20:23.244Z,100072.64
2019-02-20T20:26:13.398Z,100070.87
2019-02-20T20:32:13.544Z,100064.80
2019-02-20T20:38:10.960Z,100073.86
2019-02-20T20:44:01.016Z,100060.72
2019-02-20T20:50:22.779Z,100065.69
2019-02-20T20:56:41.333Z,100063.27
2019-02-20T21:02:10.548Z,100068.53
2019-02-20T21:08:14.004Z,100060.00
2019-02-20T21:14:30.096Z,100062.98
2019-02-20T21:20:49.508Z,100058.37
2019-02-20T21:26:39.504Z,100071.06
2019-02-20T21:32:31.492Z,100066.62
2019-02-20T21:38:51.998Z,100071.55
2019-02-20T21:44:57.623Z,100072.73
2019-02-20T21:51:37.823Z,100075.86
2019-02-20T21:57:14.932Z,100073.30
2019-02-20T22:03:22.872Z,100079.91
2019-02-20T22:09:32.227Z,100081.74
2019-02-20T22:15:18.053Z,100076.95
2019-02-20T22:21:32.334Z,100070.88
2019-02-20T22:27:20.395Z,100078.80
2019-02-20T22:33:38.633Z,100080.95
2019-02-20T22:39:46.196Z,100076.42
2019-02-20T22:46:02.651Z,100083.01
2019-02-20T22:51:48.336Z,100080.92
2019-02-20T22:57:49.814Z,100088.81
2019-02-20T23:03:38.785Z,100091.13
2019-02-20T23:09:43.211Z,100085.39
2019-02-20T23:15:01.116Z,100082.11
2019-02-20T23:20:07.192Z,100084.41
2019-02-20T23:25:12.828Z,100089.48
2019-02-20T23:30:18.782Z,100090.79
2019-02-20T23:35:24.816Z,100101.13
2019-02-20T23:40:30.486Z,100103.26
2019-02-20T23:45:36.174Z,100098.83
2019-02-20T23:50:41.936Z,100114.42
2019-02-20T23:55:48.023Z,100117.55
